Time;durP1;ratioP1;P1;durP2;ratioP2;P2;SDS_P1;SDS_P2;PMS_P1;PMS_P2;Temp;Humidity;BMP_temperature;BMP_pressure;BME280_temperature;BME280_humidity;BME280_pressure;Samples;Min_cycle;Max_cycle;Signal;HPM_P1;HPM_P2
2022/02/08 00:00:06;;;;;;;;;27.75;26.25;;;;;5.49;76.69;102751.22;5101060;27;45264;-78
2022/02/08 00:02:35;;;;;;;;;26.00;24.00;;;;;5.66;76.92;102776.63;5102540;27;45480;-78
2022/02/08 00:05:01;;;;;;;;;23.25;23.25;;;;;5.59;76.70;102764.75;5084247;27;47308;-78
2022/02/08 00:07:28;;;;;;;;;23.75;22.50;;;;;5.63;77.13;102772.34;5084235;27;45715;-77
2022/02/08 00:09:53;;;;;;;;;25.50;23.00;;;;;5.64;77.25;102771.44;5102827;27;45230;-77
2022/02/08 00:12:19;;;;;;;;;24.00;21.00;;;;;5.56;76.97;102753.41;5084014;27;46170;-78
2022/02/08 00:14:45;;;;;;;;;26.75;25.00;;;;;5.63;77.09;102753.88;5102627;27;45462;-78
2022/02/08 00:17:10;;;;;;;;;25.50;22.00;;;;;5.75;77.47;102772.59;5102543;27;45288;-77
2022/02/08 00:19:36;;;;;;;;;26.00;26.00;;;;;5.75;76.86;102767.31;5102818;27;45223;-77
2022/02/08 00:22:03;;;;;;;;;22.00;20.00;;;;;5.87;77.33;102777.09;5102555;27;45211;-78
2022/02/08 00:24:28;;;;;;;;;23.75;23.00;;;;;5.79;77.78;102761.75;5102533;27;45363;-78
2022/02/08 00:26:54;;;;;;;;;24.00;21.00;;;;;5.73;77.71;102743.66;5083789;27;45302;-78
2022/02/08 00:29:21;;;;;;;;;26.25;25.75;;;;;5.88;77.74;102759.47;5102409;27;45299;-77
2022/02/08 00:31:46;;;;;;;;;30.00;27.50;;;;;5.91;77.57;102754.88;5102313;27;45480;-78
2022/02/08 00:34:11;;;;;;;;;22.75;21.50;;;;;5.90;77.09;102739.97;5102248;27;46354;-78
2022/02/08 00:36:37;;;;;;;;;22.00;21.00;;;;;6.07;77.25;102756.59;5102116;27;45326;-78
2022/02/08 00:39:05;;;;;;;;;24.75;22.75;;;;;6.14;77.95;102757.06;5102306;27;45785;-77
2022/02/08 00:41:30;;;;;;;;;20.25;20.25;;;;;6.03;76.78;102728.66;5083852;27;46511;-78
2022/02/08 00:44:04;;;;;;;;;22.50;21.50;;;;;6.16;77.38;102742.81;5083598;27;46969;-78
2022/02/08 00:46:57;;;;;;;;;21.00;20.50;;;;;6.25;77.68;102749.31;5083597;27;45306;-78
2022/02/08 00:49:30;;;;;;;;;24.75;21.50;;;;;6.34;76.94;102761.09;5083726;27;45320;-78
2022/02/08 00:52:04;;;;;;;;;18.75;18.50;;;;;6.31;77.21;102746.31;5101956;27;45346;-78
2022/02/08 00:54:29;;;;;;;;;19.25;18.50;;;;;6.37;77.50;102747.69;5083324;27;48001;-78
2022/02/08 00:56:54;;;;;;;;;21.00;19.50;;;;;6.21;77.27;102715.28;5083384;27;46082;-78
2022/02/08 00:59:20;;;;;;;;;21.75;21.00;;;;;6.26;77.21;102716.69;5101904;27;45363;-78
2022/02/08 01:01:45;;;;;;;;;20.75;19.75;;;;;6.53;76.99;102750.22;5101926;27;45302;-78
2022/02/08 01:04:11;;;;;;;;;21.00;19.75;;;;;6.62;77.31;102759.38;5083429;27;47193;-78
2022/02/08 01:06:39;;;;;;;;;21.00;20.75;;;;;6.61;76.58;102754.19;5101619;27;45240;-79
2022/02/08 01:09:22;;;;;;;;;17.50;17.25;;;;;6.71;76.42;102765.00;5083086;27;45277;-78
2022/02/08 01:11:51;;;;;;;;;23.50;20.50;;;;;6.73;76.74;102768.41;5082677;27;46488;-78
2022/02/08 01:14:17;;;;;;;;;19.50;15.50;;;;;6.68;76.34;102766.88;5082942;27;46473;-78
2022/02/08 01:16:43;;;;;;;;;18.00;18.00;;;;;6.74;75.98;102776.22;5101549;27;45353;-79
2022/02/08 01:19:09;;;;;;;;;22.50;19.75;;;;;6.78;75.98;102784.78;5096626;27;45371;-78
2022/02/08 01:21:35;;;;;;;;;19.50;19.50;;;;;6.80;76.01;102791.66;5083066;27;46331;-78
2022/02/08 01:24:01;;;;;;;;;19.25;17.25;;;;;6.77;76.38;102775.19;5101327;27;46016;-77
2022/02/08 01:26:28;;;;;;;;;21.00;19.50;;;;;6.87;76.19;102786.84;5101375;27;45322;-78
2022/02/08 01:29:19;;;;;;;;;20.00;19.50;;;;;6.82;76.92;102781.88;5101572;27;45252;-78
2022/02/08 01:31:46;;;;;;;;;20.75;17.75;;;;;6.89;77.11;102787.59;5101362;27;45346;-78
2022/02/08 01:34:30;;;;;;;;;16.75;16.00;;;;;6.74;76.51;102755.09;5101283;27;45390;-78
2022/02/08 01:37:25;;;;;;;;;20.33;18.00;;;;;6.94;76.52;102777.56;5101027;27;45304;-78
2022/02/08 01:40:07;;;;;;;;;17.33;15.67;;;;;6.96;77.12;102785.41;5101435;27;45322;-78
2022/02/08 01:45:56;;;;;;;;;24.00;19.75;;;;;6.98;76.86;102786.16;5101053;27;45865;-78
2022/02/08 01:50:55;;;;;;;;;24.75;19.75;;;;;6.94;76.50;102758.22;5101047;27;45279;-78
2022/02/08 01:53:21;;;;;;;;;17.00;16.25;;;;;6.79;76.55;102731.84;5100942;27;45638;-77
2022/02/08 01:55:47;;;;;;;;;18.75;17.25;;;;;7.10;76.95;102787.16;5100917;27;45293;-78
2022/02/08 01:58:13;;;;;;;;;20.50;18.00;;;;;7.11;76.50;102783.56;5082347;27;45272;-78
2022/02/08 02:00:38;;;;;;;;;21.00;20.75;;;;;7.01;77.04;102777.19;5101339;27;45246;-78
2022/02/08 02:03:04;;;;;;;;;17.75;17.25;;;;;7.13;76.70;102794.03;5100858;27;45464;-78
2022/02/08 02:05:30;;;;;;;;;19.75;18.50;;;;;7.09;76.49;102779.31;5101035;27;45396;-78
2022/02/08 02:07:57;;;;;;;;;23.00;19.75;;;;;7.05;75.92;102783.94;5082330;27;45357;-78
2022/02/08 02:10:24;;;;;;;;;17.33;17.33;;;;;6.88;76.21;102746.25;5082352;27;45291;-77
2022/02/08 02:12:50;;;;;;;;;17.25;17.25;;;;;7.18;75.90;102792.78;5081904;27;46346;-78
2022/02/08 02:15:15;;;;;;;;;18.33;17.67;;;;;6.86;75.95;102748.16;5100744;27;45397;-78
2022/02/08 02:17:40;;;;;;;;;21.33;21.33;;;;;7.08;75.81;102781.13;5100499;27;45255;-78
2022/02/08 02:20:06;;;;;;;;;18.25;17.75;;;;;7.04;76.08;102774.34;5100924;27;45254;-78
2022/02/08 02:22:32;;;;;;;;;21.00;17.25;;;;;7.05;76.20;102768.94;5081319;27;46665;-78
2022/02/08 02:24:57;;;;;;;;;21.75;19.50;;;;;7.18;75.95;102794.56;5082074;27;47872;-78
2022/02/08 02:27:22;;;;;;;;;20.25;17.25;;;;;7.07;75.92;102766.19;5082145;27;45529;-77
2022/02/08 02:29:48;;;;;;;;;22.00;19.75;;;;;7.12;75.89;102769.38;5082270;27;45341;-78
2022/02/08 02:32:13;;;;;;;;;21.25;18.50;;;;;7.10;76.06;102768.66;5100381;27;45567;-78
2022/02/08 02:34:49;;;;;;;;;16.00;16.00;;;;;7.16;76.02;102783.25;5082118;27;46909;-78
2022/02/08 02:37:15;;;;;;;;;21.75;18.75;;;;;7.10;75.94;102766.00;5081876;27;46077;-77
2022/02/08 02:39:40;;;;;;;;;16.25;16.00;;;;;6.98;75.80;102751.78;5100388;27;45297;-78
2022/02/08 02:42:14;;;;;;;;;15.75;15.25;;;;;7.01;75.98;102745.44;5100270;27;45489;-78
2022/02/08 02:44:40;;;;;;;;;18.25;17.25;;;;;7.12;75.85;102769.38;5100221;27;46174;-78
2022/02/08 02:47:05;;;;;;;;;18.00;16.33;;;;;7.16;75.81;102776.16;5081674;27;45477;-78
2022/02/08 02:49:31;;;;;;;;;16.33;15.00;;;;;7.02;75.80;102750.63;5081953;27;45393;-77
2022/02/08 02:51:56;;;;;;;;;16.00;16.00;;;;;6.98;75.76;102759.72;5100338;27;45305;-78
2022/02/08 02:54:22;;;;;;;;;18.67;16.33;;;;;7.09;75.45;102772.22;5100057;27;45425;-78
2022/02/08 02:56:49;;;;;;;;;16.75;16.00;;;;;7.15;75.85;102774.47;5081778;27;45718;-78
2022/02/08 02:59:16;;;;;;;;;12.67;12.67;;;;;7.07;75.52;102763.56;5100265;27;45240;-78
2022/02/08 03:20:21;;;;;;;;;15.00;13.33;;;;;7.07;75.95;102737.94;5100011;27;45390;-78
2022/02/08 03:22:46;;;;;;;;;14.67;12.33;;;;;7.22;76.57;102750.25;5081311;27;46095;-78
2022/02/08 03:25:11;;;;;;;;;13.67;11.67;;;;;7.15;76.48;102741.91;5081562;27;48067;-78
2022/02/08 03:27:37;;;;;;;;;14.00;14.00;;;;;7.04;76.01;102713.53;5081069;27;45338;-77
2022/02/08 03:30:04;;;;;;;;;16.00;12.00;;;;;7.26;76.22;102749.09;5081631;27;45309;-78
2022/02/08 03:32:29;;;;;;;;;12.33;12.33;;;;;7.35;76.21;102766.16;5099955;27;46987;-78
2022/02/08 03:34:55;;;;;;;;;15.33;15.00;;;;;7.21;75.79;102741.47;5102451;27;45245;-78
2022/02/08 03:37:20;;;;;;;;;15.33;13.33;;;;;7.27;76.05;102754.28;5103437;27;45248;-78
2022/02/08 03:39:55;;;;;;;;;15.00;13.67;;;;;7.29;75.98;102757.69;5084890;27;45257;-78
2022/02/08 03:42:25;;;;;;;;;11.67;11.00;;;;;7.31;76.72;102753.13;5103105;27;45281;-78
2022/02/08 03:44:51;;;;;;;;;13.00;12.00;;;;;7.17;76.25;102734.69;5084685;27;47387;-78
2022/02/08 03:47:18;;;;;;;;;14.00;11.67;;;;;7.38;76.09;102769.44;5084515;27;45820;-78
2022/02/08 03:49:44;;;;;;;;;12.00;12.00;;;;;7.07;75.72;102726.53;5084894;27;45243;-78
2022/02/08 03:52:10;;;;;;;;;12.33;10.33;;;;;7.22;75.99;102743.19;5103028;27;45253;-78
2022/02/08 03:54:36;;;;;;;;;13.67;13.67;;;;;7.49;76.13;102781.97;5084517;27;47121;-78
2022/02/08 03:57:04;;;;;;;;;15.33;13.00;;;;;7.35;75.52;102764.34;5084604;27;45646;-78
2022/02/08 03:59:29;;;;;;;;;13.67;11.00;;;;;7.32;75.65;102753.97;5102826;27;45291;-78
2022/02/08 04:07:21;;;;;;;;;11.67;11.67;;;;;7.41;76.42;102769.25;5102687;27;45304;-78
2022/02/08 04:09:49;;;;;;;;;9.33;9.33;;;;;7.52;76.10;102795.00;5084229;27;45278;-78
2022/02/08 04:12:22;;;;;;;;;11.67;11.67;;;;;7.46;76.00;102782.16;5102286;27;45496;-78
2022/02/08 04:34:04;;;;;;;;;12.00;11.33;;;;;7.48;76.48;102764.38;5102301;27;45232;-78
2022/02/08 04:39:18;;;;;;;;;11.67;11.33;;;;;7.52;76.83;102772.97;5102250;27;45287;-77
2022/02/08 04:42:08;;;;;;;;;9.33;8.00;;;;;7.61;76.83;102788.22;5083836;27;45276;-78
2022/02/08 04:47:15;;;;;;;;;12.67;9.67;;;;;7.62;76.65;102787.25;5101388;27;45387;-77
2022/02/08 04:49:41;;;;;;;;;11.33;9.33;;;;;7.58;77.05;102775.19;5102179;27;45274;-78
2022/02/08 04:52:09;;;;;;;;;12.67;12.33;;;;;7.67;76.78;102782.50;5083657;27;45275;-78
2022/02/08 04:54:46;;;;;;;;;12.67;9.67;;;;;7.63;76.75;102775.72;5083549;27;47093;-78
2022/02/08 04:57:26;;;;;;;;;10.67;10.67;;;;;7.61;76.94;102777.63;5101704;27;46426;-78
2022/02/08 05:45:30;;;;;;;;;10.33;10.33;;;;;7.53;77.75;102727.00;5080718;28;45218;-78
2022/02/08 05:47:59;;;;;;;;;9.67;8.67;;;;;7.76;77.94;102759.00;5080607;28;45482;-78
2022/02/08 05:50:38;;;;;;;;;10.33;9.00;;;;;7.87;77.95;102774.16;5080617;28;45247;-78
2022/02/08 05:53:08;;;;;;;;;9.00;9.00;;;;;7.88;77.61;102776.69;5080553;28;45359;-78
2022/02/08 05:55:36;;;;;;;;;10.00;10.00;;;;;7.79;77.67;102757.00;5062249;28;45295;-78
2022/02/08 05:58:03;;;;;;;;;10.00;8.33;;;;;7.92;77.59;102770.22;5079104;28;45249;-77
2022/02/08 06:00:30;;;;;;;;;8.67;8.00;;;;;7.86;77.82;102756.56;5080521;28;45595;-78
2022/02/08 06:02:59;;;;;;;;;9.00;7.00;;;;;7.89;77.60;102770.44;5080450;28;45322;-78
2022/02/08 06:05:25;;;;;;;;;9.00;8.67;;;;;7.96;77.94;102776.13;5080741;28;45260;-78
2022/02/08 06:07:50;;;;;;;;;10.67;8.67;;;;;7.95;77.65;102770.03;5080465;28;45327;-78
2022/02/08 06:10:16;;;;;;;;;10.33;9.00;;;;;7.96;78.13;102774.34;5080297;28;45174;-78
2022/02/08 06:12:51;;;;;;;;;7.33;6.67;;;;;7.69;78.11;102734.75;5079985;28;45279;-78
2022/02/08 06:15:20;;;;;;;;;11.67;9.00;;;;;7.97;77.74;102769.91;5079671;28;45248;-79
2022/02/08 06:17:46;;;;;;;;;8.00;6.00;;;;;7.78;78.13;102733.28;5087636;27;45434;-77
2022/02/08 06:20:12;;;;;;;;;16.00;16.00;;;;;8.05;78.06;102783.44;5073036;28;45675;-76
2022/02/08 06:22:40;;;;;;;;;11.33;10.00;;;;;7.88;77.52;102752.88;5078868;28;45730;-76
2022/02/08 06:25:08;;;;;;;;;7.33;7.33;;;;;8.03;77.75;102768.63;5061408;28;45324;-76
2022/02/08 06:27:34;;;;;;;;;9.00;9.00;;;;;8.03;77.90;102772.13;5061898;28;46336;-76
2022/02/08 06:30:00;;;;;;;;;9.33;7.33;;;;;8.00;78.05;102761.75;5094068;27;45476;-77
2022/02/08 06:32:27;;;;;;;;;10.00;9.00;;;;;8.09;78.11;102773.50;5082156;27;45350;-75
2022/02/08 06:34:55;;;;;;;;;14.67;12.67;;;;;7.96;77.82;102757.59;5101740;27;45343;-77
2022/02/08 06:37:22;;;;;;;;;4.00;4.00;;;;;8.04;78.08;102788.84;5121209;27;45633;-77
2022/02/08 06:39:47;;;;;;;;;11.33;10.00;;;;;7.73;77.64;102730.09;5111473;27;45521;-76
2022/02/08 06:42:12;;;;;;;;;14.00;13.67;;;;;7.95;77.94;102764.72;5072754;27;45392;-77
2022/02/08 06:44:38;;;;;;;;;11.00;11.00;;;;;8.01;78.67;102781.97;5082284;27;45363;-76
2022/02/08 06:47:04;;;;;;;;;13.00;12.33;;;;;8.06;78.45;102785.13;5100435;27;45314;-76
2022/02/08 06:49:30;;;;;;;;;18.00;13.33;;;;;8.08;78.59;102787.69;5100315;27;45418;-75
2022/02/08 06:51:55;;;;;;;;;11.33;11.00;;;;;8.08;78.70;102785.03;5081932;27;45390;-75
2022/02/08 06:54:21;;;;;;;;;14.00;14.00;;;;;8.08;78.47;102779.72;5100443;27;45314;-77
2022/02/08 06:56:47;;;;;;;;;15.67;14.33;;;;;7.94;78.93;102751.59;5081768;27;47244;-77
2022/02/08 06:59:16;;;;;;;;;11.67;11.67;;;;;8.01;78.19;102770.53;5098756;27;47171;-76
2022/02/08 07:01:41;;;;;;;;;15.00;12.00;;;;;7.90;78.95;102764.19;5100372;27;45473;-77
2022/02/08 07:04:09;;;;;;;;;11.67;10.00;;;;;8.06;78.81;102795.72;5100402;27;45286;-78
2022/02/08 07:06:35;;;;;;;;;10.33;9.67;;;;;8.04;78.63;102792.38;5100140;27;45332;-78
2022/02/08 07:09:00;;;;;;;;;7.33;7.33;;;;;8.08;78.57;102798.28;5083160;27;48186;-78
2022/02/08 07:11:26;;;;;;;;;10.67;10.67;;;;;8.09;78.93;102808.75;5103920;27;45353;-78
2022/02/08 07:13:53;;;;;;;;;12.33;10.67;;;;;8.02;79.39;102786.31;5103739;27;45295;-78
2022/02/08 07:16:19;;;;;;;;;10.33;10.00;;;;;8.18;79.25;102809.94;5085276;27;46287;-78
2022/02/08 07:18:45;;;;;;;;;10.33;9.67;;;;;8.13;79.57;102805.91;5103270;27;45491;-79
2022/02/08 07:21:11;;;;;;;;;10.33;9.00;;;;;7.85;79.02;102753.09;5103614;27;45413;-78
2022/02/08 07:23:37;;;;;;;;;12.00;11.00;;;;;8.15;79.33;102807.50;5103807;27;45259;-78
2022/02/08 07:26:03;;;;;;;;;10.00;8.33;;;;;8.20;79.07;102818.63;5103394;27;45543;-79
2022/02/08 07:28:29;;;;;;;;;10.33;10.33;;;;;8.15;79.23;102814.59;5103169;27;45322;-79
2022/02/08 07:31:07;;;;;;;;;10.00;10.00;;;;;8.16;79.33;102817.16;5103468;27;45247;-79
2022/02/08 07:33:34;;;;;;;;;9.00;9.00;;;;;8.23;80.27;102817.53;5103725;27;45264;-79
2022/02/08 07:36:10;;;;;;;;;10.67;9.00;;;;;8.24;79.79;102815.75;5103176;27;45237;-79
2022/02/08 07:38:38;;;;;;;;;10.00;10.00;;;;;8.19;80.24;102806.34;5103311;27;46284;-79
2022/02/08 07:43:29;;;;;;;;;11.67;11.00;;;;;8.30;79.71;102810.03;5099756;27;45345;-80
2022/02/08 07:45:56;;;;;;;;;8.00;8.00;;;;;8.28;80.36;102811.94;5080134;27;45296;-79
2022/02/08 07:48:22;;;;;;;;;9.67;8.33;;;;;8.40;80.17;102824.31;5063686;28;47299;-79
2022/02/08 07:50:50;;;;;;;;;10.00;8.33;;;;;8.37;80.75;102813.09;5062610;28;45459;-79
2022/02/08 07:53:16;;;;;;;;;14.33;14.33;;;;;8.38;80.60;102802.38;5062091;28;45429;-79
2022/02/08 07:55:41;;;;;;;;;17.00;11.67;;;;;8.38;80.78;102809.50;5063247;28;46223;-79
2022/02/08 07:58:07;;;;;;;;;13.33;11.67;;;;;8.57;80.53;102831.13;5061602;28;48096;-79
2022/02/08 08:00:33;;;;;;;;;11.67;11.33;;;;;8.59;80.46;102838.94;5079638;28;45492;-79
2022/02/08 08:02:59;;;;;;;;;12.00;11.00;;;;;8.49;80.56;102804.28;5061325;28;45832;-79
2022/02/08 08:05:28;;;;;;;;;11.67;11.33;;;;;8.62;80.55;102819.34;5061609;28;46361;-80
2022/02/08 08:07:53;;;;;;;;;12.33;12.33;;;;;8.58;80.36;102808.94;5080979;28;45373;-80
2022/02/08 08:10:20;;;;;;;;;12.00;9.00;;;;;8.60;80.46;102803.53;5080902;28;45362;-80
2022/02/08 08:12:50;;;;;;;;;11.33;10.33;;;;;8.74;80.12;102820.25;5081232;28;45337;-82
2022/02/08 08:20:17;;;;;;;;;11.33;11.33;;;;;8.75;80.77;102795.44;5101550;27;45307;-79
2022/02/08 08:22:42;;;;;;;;;6.33;4.33;;;;;8.71;80.80;102793.00;5084457;27;45483;-79
2022/02/08 08:25:08;;;;;;;;;10.00;10.00;;;;;8.74;81.00;102799.03;5102586;27;45204;-78
2022/02/08 08:27:33;;;;;;;;;10.67;10.67;;;;;8.80;81.06;102799.44;5102277;27;45338;-79
2022/02/08 08:29:59;;;;;;;;;10.00;10.00;;;;;8.92;80.74;102816.25;5084013;27;45267;-79
2022/02/08 08:32:24;;;;;;;;;10.67;10.67;;;;;8.97;80.83;102810.63;5102663;27;45188;-79
2022/02/08 08:34:49;;;;;;;;;12.33;11.33;;;;;8.91;80.88;102787.19;5102245;27;45271;-79
2022/02/08 08:37:15;;;;;;;;;11.00;11.00;;;;;8.91;81.42;102781.88;5102142;27;45918;-79
2022/02/08 08:39:46;;;;;;;;;14.33;14.33;;;;;9.07;80.86;102806.31;5102519;27;45503;-80
2022/02/08 08:42:38;;;;;;;;;14.33;13.00;;;;;9.08;81.10;102805.38;5083754;27;45334;-80
2022/02/08 08:53:26;;;;;;;;;11.67;11.67;;;;;9.24;80.31;102798.06;5081752;28;45183;-79
2022/02/08 08:55:52;;;;;;;;;12.00;11.67;;;;;9.36;80.33;102814.91;5063314;28;47261;-79
2022/02/08 08:58:18;;;;;;;;;17.67;15.67;;;;;9.35;79.91;102811.41;5081253;28;45385;-79
2022/02/08 09:00:43;;;;;;;;;13.33;13.33;;;;;9.22;79.98;102788.41;5081684;28;45374;-79
2022/02/08 09:03:08;;;;;;;;;14.00;13.00;;;;;9.27;79.82;102797.84;5081641;28;45412;-79
2022/02/08 09:05:34;;;;;;;;;12.33;12.33;;;;;9.30;79.77;102806.44;5081566;28;45488;-79
2022/02/08 09:07:59;;;;;;;;;15.67;14.00;;;;;9.32;80.13;102808.97;5062870;28;47273;-79
2022/02/08 09:10:32;;;;;;;;;15.33;14.00;;;;;9.40;79.90;102821.66;5081242;28;45368;-79
2022/02/08 09:16:07;;;;;;;;;12.67;12.67;;;;;9.41;79.70;102824.22;5081135;28;45241;-79
2022/02/08 09:29:09;;;;;;;;;3.67;1.33;;;;;9.56;79.68;102824.88;5101165;27;45229;-79
2022/02/08 09:31:37;;;;;;;;;17.67;14.67;;;;;9.40;79.26;102788.00;5101324;27;45373;-79
2022/02/08 09:34:04;;;;;;;;;15.00;15.00;;;;;9.60;79.56;102822.81;5101567;27;45285;-79
2022/02/08 09:36:31;;;;;;;;;14.00;13.00;;;;;9.47;79.54;102794.56;5082842;27;46607;-79
2022/02/08 09:38:56;;;;;;;;;16.00;14.00;;;;;9.68;79.23;102825.75;5082909;27;48475;-79
2022/02/08 09:41:23;;;;;;;;;13.00;13.00;;;;;9.33;79.59;102761.09;5101236;27;45262;-79
2022/02/08 09:43:50;;;;;;;;;18.00;14.67;;;;;9.66;79.22;102826.78;5082957;27;45399;-79
2022/02/08 09:46:17;;;;;;;;;13.33;12.33;;;;;9.66;79.38;102806.41;5101274;27;45318;-79
2022/02/08 09:48:53;;;;;;;;;12.67;12.67;;;;;9.69;79.75;102818.59;5082585;27;48332;-79
2022/02/08 09:51:18;;;;;;;;;13.33;12.00;;;;;9.70;79.28;102807.84;5101201;27;45283;-79
2022/02/08 09:53:44;;;;;;;;;16.00;16.00;;;;;9.83;79.27;102823.72;5082750;27;45450;-79
2022/02/08 09:56:12;;;;;;;;;14.67;13.33;;;;;9.76;78.97;102811.84;5100990;27;45280;-79
2022/02/08 09:58:38;;;;;;;;;17.00;14.67;;;;;9.73;79.38;102807.63;5100895;27;45418;-79
2022/02/08 10:01:06;;;;;;;;;13.33;13.33;;;;;9.84;79.42;102819.22;5101034;27;45276;-79
2022/02/08 10:03:32;;;;;;;;;13.67;12.67;;;;;9.86;79.51;102814.66;5101095;27;45336;-79
2022/02/08 10:05:58;;;;;;;;;14.67;14.67;;;;;9.93;79.42;102815.00;5074073;28;47172;-79
2022/02/08 10:08:24;;;;;;;;;13.33;12.33;;;;;9.96;79.32;102812.97;5062258;28;46938;-79
2022/02/08 10:10:49;;;;;;;;;14.00;13.00;;;;;9.89;78.92;102789.66;5061859;28;45360;-79
2022/02/08 10:13:57;;;;;;;;;14.67;14.00;;;;;10.05;79.34;102813.22;5062028;28;45265;-79
2022/02/08 10:21:48;;;;;;;;;15.33;13.33;;;;;10.09;79.15;102788.94;5100475;27;45401;-80
2022/02/08 10:24:16;;;;;;;;;13.00;13.00;;;;;10.14;79.18;102793.91;5100537;27;45307;-79
2022/02/08 10:37:39;;;;;;;;;14.67;14.00;;;;;10.43;78.75;102806.72;5100540;27;45218;-79
2022/02/08 10:40:06;;;;;;;;;13.33;13.33;;;;;10.46;78.88;102803.84;5100358;27;46346;-78
2022/02/08 10:42:33;;;;;;;;;15.33;15.33;;;;;10.63;79.08;102825.56;5099725;27;45280;-79
2022/02/08 10:45:00;;;;;;;;;17.33;16.67;;;;;10.73;78.82;102821.19;5100089;27;45325;-78
2022/02/08 10:47:41;;;;;;;;;13.00;13.00;;;;;10.78;78.74;102818.16;5097806;27;45311;-79
2022/02/08 10:50:08;;;;;;;;;18.67;16.67;;;;;10.85;78.64;102821.16;5079894;28;45686;-78
2022/02/08 10:52:36;;;;;;;;;14.33;13.33;;;;;10.78;78.22;102809.34;5060439;28;45342;-77
2022/02/08 10:55:13;;;;;;;;;14.33;12.33;;;;;10.90;77.81;102816.34;5061407;28;45324;-79
2022/02/08 10:57:55;;;;;;;;;12.00;10.67;;;;;10.90;77.84;102810.16;5061163;28;46339;-79
2022/02/08 11:00:28;;;;;;;;;14.00;13.33;;;;;10.94;78.16;102803.59;5079093;28;45374;-81
2022/02/08 11:02:55;;;;;;;;;15.67;13.00;;;;;10.95;77.57;102803.47;5076944;28;45310;-80
2022/02/08 11:20:51;;;;;;;;;10.00;10.00;;;;;11.10;77.61;102795.19;5099731;27;45999;-81
2022/02/08 11:23:31;;;;;;;;;12.00;12.00;;;;;11.15;77.49;102792.16;5081538;27;45954;-80
2022/02/08 11:25:57;;;;;;;;;16.67;13.00;;;;;11.19;77.61;102781.13;5099846;27;45244;-83
2022/02/08 11:28:29;;;;;;;;;12.00;12.00;;;;;11.33;77.21;102793.28;5097884;27;45203;-82
2022/02/08 11:33:55;;;;;;;;;15.67;15.00;;;;;11.22;77.26;102756.91;5072637;28;45304;-82
2022/02/08 11:53:30;;;;;;;;;12.00;11.00;;;;;11.39;76.44;102746.66;5078915;28;45829;-81
2022/02/08 12:09:50;;;;;;;;;12.67;12.67;;;;;11.47;76.90;102728.19;5099108;27;45330;-80
2022/02/08 12:32:20;;;;;;;;;14.00;12.67;;;;;12.00;75.94;102717.50;5102465;27;45313;-82
2022/02/08 12:59:39;;;;;;;;;10.00;9.00;;;;;12.05;74.33;102663.81;5069778;27;45881;-82
2022/02/08 13:02:21;;;;;;;;;9.67;9.00;;;;;12.23;74.84;102694.19;5100360;27;45323;-82
2022/02/08 13:05:22;;;;;;;;;11.00;9.33;;;;;11.91;74.50;102639.22;5100756;27;45192;-83
2022/02/08 14:24:12;;;;;;;;;12.67;11.00;;;;;12.02;74.75;102645.41;5121398;27;45451;-79
2022/02/08 15:09:17;;;;;;;;;10.00;9.33;;;;;11.82;75.44;102598.25;5120589;27;45332;-80
2022/02/08 15:11:58;;;;;;;;;12.67;11.00;;;;;12.00;75.55;102626.91;5119089;27;45908;-80
2022/02/08 15:14:27;;;;;;;;;12.67;12.67;;;;;11.85;75.49;102608.66;5120907;27;45448;-80
2022/02/08 15:16:52;;;;;;;;;10.00;9.67;;;;;11.82;75.56;102600.94;5120635;27;45474;-81
2022/02/08 15:19:18;;;;;;;;;18.67;16.33;;;;;11.95;75.75;102630.00;5101945;27;45346;-80
2022/02/08 15:21:43;;;;;;;;;16.33;15.67;;;;;11.85;75.57;102613.13;5098778;27;45286;-80
2022/02/08 15:24:10;;;;;;;;;13.67;13.67;;;;;11.97;75.69;102644.00;5100272;27;45369;-80
2022/02/08 15:26:37;;;;;;;;;14.00;12.67;;;;;11.99;75.26;102643.88;5098470;27;46191;-80
2022/02/08 15:29:04;;;;;;;;;13.67;13.33;;;;;11.86;75.56;102630.81;5099921;27;45349;-79
2022/02/08 15:31:30;;;;;;;;;14.00;14.00;;;;;11.85;75.61;102635.28;5102211;27;45300;-80
2022/02/08 15:33:57;;;;;;;;;14.00;13.33;;;;;11.87;76.24;102629.81;5103700;27;45877;-80
2022/02/08 15:36:23;;;;;;;;;13.67;13.67;;;;;11.95;75.86;102646.00;5103307;27;45567;-80
2022/02/08 15:38:53;;;;;;;;;13.67;13.00;;;;;11.86;76.04;102628.16;5103249;27;45368;-80
2022/02/08 15:41:19;;;;;;;;;14.00;13.33;;;;;11.84;75.99;102627.44;5103391;27;45299;-80
2022/02/08 15:43:44;;;;;;;;;13.67;13.00;;;;;11.82;76.05;102622.22;5103291;27;45164;-80
2022/02/08 15:46:19;;;;;;;;;12.00;12.00;;;;;11.87;76.30;102624.50;5103312;27;45228;-80
2022/02/08 15:48:47;;;;;;;;;15.67;15.00;;;;;11.80;75.89;102612.69;5103316;27;45480;-80
2022/02/08 15:51:18;;;;;;;;;13.67;12.67;;;;;11.95;75.54;102643.31;5103231;27;45212;-80
2022/02/08 16:01:40;;;;;;;;;10.00;10.00;;;;;11.81;75.27;102620.56;5091352;27;45374;-79
2022/02/08 16:06:58;;;;;;;;;14.67;12.67;;;;;11.83;75.93;102605.25;5082173;28;45227;-80
2022/02/08 16:17:30;;;;;;;;;11.00;11.00;;;;;11.83;76.06;102613.25;5106880;27;45552;-78
2022/02/08 16:25:18;;;;;;;;;11.33;10.67;;;;;11.68;76.02;102618.16;5123312;27;45189;-79
2022/02/08 16:30:49;;;;;;;;;12.33;12.33;;;;;11.65;76.46;102629.06;5103872;27;45480;-79
2022/02/08 16:54:40;;;;;;;;;12.00;12.00;;;;;11.19;76.76;102618.78;5081531;28;45361;-80
2022/02/08 16:57:11;;;;;;;;;12.00;11.00;;;;;11.23;76.82;102633.50;5080559;27;45287;-80
2022/02/08 16:59:39;;;;;;;;;13.33;12.67;;;;;11.28;76.93;102645.59;5074683;27;46481;-81
2022/02/08 17:02:06;;;;;;;;;10.33;10.33;;;;;11.22;77.07;102634.47;5100783;27;45449;-79
2022/02/08 17:04:33;;;;;;;;;13.00;11.00;;;;;11.14;76.86;102638.78;5104346;27;45419;-79
2022/02/08 17:06:59;;;;;;;;;11.00;10.00;;;;;11.15;77.16;102641.31;5122672;27;45225;-78
2022/02/08 17:09:50;;;;;;;;;11.67;11.67;;;;;11.14;77.29;102644.09;5120686;27;46159;-79
2022/02/08 17:12:55;;;;;;;;;13.00;13.00;;;;;11.13;77.23;102650.41;5121514;27;45896;-78
2022/02/08 17:47:43;;;;;;;;;13.67;13.00;;;;;10.85;78.15;102648.25;5096358;27;45523;-81
2022/02/08 17:50:10;;;;;;;;;14.33;13.00;;;;;10.87;78.12;102643.66;5093530;27;45387;-80
2022/02/08 17:52:37;;;;;;;;;13.67;13.33;;;;;10.84;78.24;102650.06;5099141;27;47525;-80
2022/02/08 17:55:05;;;;;;;;;15.33;15.33;;;;;10.84;78.39;102643.91;5100315;27;45858;-81
2022/02/08 17:57:30;;;;;;;;;15.67;15.67;;;;;10.87;78.02;102654.31;5101372;27;45260;-81
2022/02/08 17:59:56;;;;;;;;;15.67;15.67;;;;;10.89;78.28;102657.66;5121776;27;45280;-80
2022/02/08 18:02:21;;;;;;;;;13.00;13.00;;;;;10.91;78.17;102662.84;5121825;27;45530;-79
2022/02/08 18:04:49;;;;;;;;;15.33;15.33;;;;;10.92;78.13;102659.25;5121626;27;46182;-79
2022/02/08 18:07:19;;;;;;;;;15.67;14.67;;;;;10.90;77.96;102662.03;5121600;27;45341;-80
2022/02/08 18:09:46;;;;;;;;;16.33;16.33;;;;;10.83;78.14;102647.53;5121624;27;45214;-80
2022/02/08 18:12:11;;;;;;;;;17.33;17.00;;;;;10.80;78.05;102645.13;5105241;27;45384;-78
2022/02/08 18:14:39;;;;;;;;;14.33;14.00;;;;;10.77;78.07;102648.06;5100925;27;45233;-82
2022/02/08 18:17:12;;;;;;;;;14.00;14.00;;;;;10.70;78.17;102639.75;5100811;27;45372;-82
2022/02/08 18:19:41;;;;;;;;;13.00;13.00;;;;;10.83;78.28;102652.84;5081374;27;45850;-81
2022/02/08 18:57:07;;;;;;;;;18.67;18.67;;;;;10.66;78.77;102659.59;5120420;27;45975;-82
2022/02/08 19:07:53;;;;;;;;;17.67;17.33;;;;;10.65;78.83;102648.09;5124172;27;45259;-78
2022/02/08 19:13:11;;;;;;;;;19.33;18.00;;;;;10.60;78.78;102651.16;5124066;27;45290;-79
2022/02/08 19:15:50;;;;;;;;;16.33;16.00;;;;;10.63;78.39;102650.06;5124220;27;45166;-79
2022/02/08 19:21:07;;;;;;;;;18.00;17.00;;;;;10.64;78.85;102651.75;5124325;27;45282;-79
2022/02/08 19:23:34;;;;;;;;;23.67;21.67;;;;;10.50;78.97;102638.75;5124432;27;45369;-79
2022/02/08 19:26:00;;;;;;;;;25.33;25.33;;;;;10.59;78.88;102649.47;5124012;27;45160;-79
2022/02/08 19:28:26;;;;;;;;;26.75;26.00;;;;;10.54;78.98;102637.53;5123641;27;47466;-79
2022/02/08 19:30:52;;;;;;;;;39.00;35.25;;;;;10.52;79.42;102644.78;5110889;27;45293;-79